Albion, Pennsylvania
Current Conditions -  °F | °C
As of 8:51 AM on Friday 24 Oct 2014 (Local Time) from KERI Reporting Station
Scattered Clouds Scattered Clouds  
Wind Chill: 42°   Ceiling: Unl
Heat Index: 44°   Visibility: 10mi
Dew Point: 41°   Wind: 5mph
Humidity: 89%   Direction: 180°S
Pressure: 30.08"   Gusts: NA
Location:  41.89°N, 80.36°W
Report Text: KERI 241251Z 18004KT 10SM SCT026 07/05 A3008 RMK AO2 SLP188 T00670050
Loading
Personal Weather Stations






























Interactive Weather Map
Tropical Storm Tracking
New forecast layout! Learn more

10-Day Weather Forecast

Advertisements
Track Severe Weather on mobile